Time;durP1;ratioP1;P1;durP2;ratioP2;P2;SDS_P1;SDS_P2;PMS_P1;PMS_P2;Temp;Humidity;BMP_temperature;BMP_pressure;BME280_temperature;BME280_humidity;BME280_pressure;Samples;Min_cycle;Max_cycle;Signal;HPM_P1;HPM_P2
2023/12/06 00:02:12;;;;;;;0.55;0.50;;;;;;;;;;5009467;28;20057;-76
2023/12/06 00:04:37;;;;;;;0.50;0.50;;;;;;;;;;5009731;28;20165;-76
2023/12/06 00:07:03;;;;;;;0.45;0.45;;;;;;;;;;5010548;28;20117;-76
2023/12/06 00:09:28;;;;;;;0.30;0.30;;;;;;;;;;5017674;28;20034;-76
2023/12/06 00:11:53;;;;;;;0.50;0.50;;;;;;;;;;5009587;28;20030;-76
2023/12/06 00:14:18;;;;;;;0.52;0.52;;;;;;;;;;5017715;28;20410;-76
2023/12/06 00:16:44;;;;;;;0.75;0.60;;;;;;;;;;5009138;28;20053;-76
2023/12/06 00:19:09;;;;;;;0.32;0.32;;;;;;;;;;5019274;28;20038;-76
2023/12/06 00:21:34;;;;;;;4.43;0.55;;;;;;;;;;5011024;28;20030;-76
2023/12/06 00:24:00;;;;;;;0.70;0.50;;;;;;;;;;5014149;28;20038;-76
2023/12/06 00:26:25;;;;;;;0.65;0.63;;;;;;;;;;5013494;28;20041;-76
2023/12/06 00:28:51;;;;;;;0.50;0.50;;;;;;;;;;5012267;28;20255;-76
2023/12/06 00:31:17;;;;;;;0.50;0.50;;;;;;;;;;5014518;28;20402;-75
2023/12/06 00:33:42;;;;;;;0.40;0.40;;;;;;;;;;5026530;28;20029;-75
2023/12/06 00:36:07;;;;;;;0.50;0.50;;;;;;;;;;5022167;28;20052;-75
2023/12/06 00:38:32;;;;;;;0.68;0.65;;;;;;;;;;5023698;28;20014;-75
2023/12/06 00:40:59;;;;;;;0.50;0.50;;;;;;;;;;5003061;28;20057;-75
2023/12/06 00:43:25;;;;;;;0.60;0.60;;;;;;;;;;5029546;28;20388;-75
2023/12/06 00:45:50;;;;;;;0.57;0.57;;;;;;;;;;5030128;28;20121;-75
2023/12/06 00:48:15;;;;;;;0.32;0.32;;;;;;;;;;5026164;28;20394;-75
2023/12/06 00:50:42;;;;;;;0.35;0.35;;;;;;;;;;5030792;28;20029;-75
2023/12/06 00:53:07;;;;;;;0.50;0.50;;;;;;;;;;5030658;28;20029;-75
2023/12/06 00:55:32;;;;;;;0.50;0.50;;;;;;;;;;5015801;28;20088;-75
2023/12/06 00:57:57;;;;;;;0.60;0.60;;;;;;;;;;5029854;28;20029;-75
2023/12/06 01:00:23;;;;;;;0.52;0.52;;;;;;;;;;5022267;28;20057;-75
2023/12/06 01:02:48;;;;;;;0.50;0.50;;;;;;;;;;5014614;28;20056;-75
2023/12/06 01:05:13;;;;;;;0.50;0.50;;;;;;;;;;5022353;28;20045;-75
2023/12/06 01:07:39;;;;;;;0.40;0.40;;;;;;;;;;5015004;28;20038;-75
2023/12/06 01:10:05;;;;;;;0.50;0.50;;;;;;;;;;5023646;28;20041;-75
2023/12/06 01:12:30;;;;;;;0.60;0.60;;;;;;;;;;5027610;28;20490;-75
2023/12/06 01:14:55;;;;;;;0.57;0.57;;;;;;;;;;5015319;28;20042;-74
2023/12/06 01:17:20;;;;;;;0.55;0.40;;;;;;;;;;5037247;28;20494;-75
2023/12/06 01:19:46;;;;;;;0.80;0.80;;;;;;;;;;5022034;28;20041;-75
2023/12/06 01:22:11;;;;;;;0.98;0.85;;;;;;;;;;5019194;28;20038;-74
2023/12/06 01:24:36;;;;;;;0.73;0.73;;;;;;;;;;5015041;28;20058;-74
2023/12/06 01:27:01;;;;;;;0.68;0.63;;;;;;;;;;5030688;28;20064;-75
2023/12/06 01:29:27;;;;;;;0.70;0.70;;;;;;;;;;5019913;28;20033;-75
2023/12/06 01:31:52;;;;;;;0.57;0.57;;;;;;;;;;5033555;28;20462;-74
2023/12/06 01:34:18;;;;;;;0.63;0.63;;;;;;;;;;5026096;28;20083;-75
2023/12/06 01:36:43;;;;;;;0.60;0.60;;;;;;;;;;5027368;28;20449;-75
2023/12/06 01:39:08;;;;;;;1.80;0.60;;;;;;;;;;5024726;28;20546;-75
2023/12/06 01:41:34;;;;;;;0.68;0.65;;;;;;;;;;4959416;28;20404;-75
2023/12/06 01:43:59;;;;;;;0.73;0.73;;;;;;;;;;5028527;28;20033;-75
2023/12/06 01:46:25;;;;;;;0.43;0.43;;;;;;;;;;5018352;28;20034;-75
2023/12/06 01:48:52;;;;;;;0.80;0.80;;;;;;;;;;5030940;28;20057;-75
2023/12/06 01:51:18;;;;;;;0.50;0.50;;;;;;;;;;5022731;28;20025;-75
2023/12/06 01:53:44;;;;;;;0.52;0.52;;;;;;;;;;5043424;28;20033;-75
2023/12/06 01:56:10;;;;;;;1.50;0.57;;;;;;;;;;5025946;28;20038;-75
2023/12/06 01:58:38;;;;;;;0.60;0.60;;;;;;;;;;5020049;28;20034;-75
2023/12/06 02:01:05;;;;;;;1.88;0.60;;;;;;;;;;5019849;28;20037;-75
2023/12/06 02:03:34;;;;;;;0.85;0.80;;;;;;;;;;5014940;28;20081;-75
2023/12/06 02:06:02;;;;;;;1.10;1.00;;;;;;;;;;5020222;28;20037;-74
2023/12/06 02:08:27;;;;;;;0.70;0.70;;;;;;;;;;5028111;28;20037;-75
2023/12/06 02:10:53;;;;;;;2.40;0.75;;;;;;;;;;5027376;28;20038;-75
2023/12/06 02:13:18;;;;;;;2.15;1.02;;;;;;;;;;5022448;28;20413;-75
2023/12/06 02:15:45;;;;;;;1.35;0.80;;;;;;;;;;5019007;28;20041;-75
2023/12/06 02:18:11;;;;;;;0.73;0.73;;;;;;;;;;5011118;28;20109;-75
2023/12/06 02:20:37;;;;;;;0.82;0.82;;;;;;;;;;5029880;28;20567;-75
2023/12/06 02:23:05;;;;;;;0.73;0.73;;;;;;;;;;5030439;28;20072;-75
2023/12/06 02:25:30;;;;;;;0.90;0.90;;;;;;;;;;5029531;28;20049;-75
2023/12/06 02:27:57;;;;;;;0.70;0.60;;;;;;;;;;5023666;28;20051;-74
2023/12/06 02:30:23;;;;;;;1.27;0.80;;;;;;;;;;5026271;28;20025;-75
2023/12/06 02:32:48;;;;;;;0.70;0.70;;;;;;;;;;5015143;28;20043;-74
2023/12/06 02:35:21;;;;;;;0.85;0.85;;;;;;;;;;5023383;28;20649;-75
2023/12/06 02:37:49;;;;;;;0.73;0.73;;;;;;;;;;5015199;28;20046;-75
2023/12/06 02:40:15;;;;;;;1.75;0.95;;;;;;;;;;5030872;28;20088;-75
2023/12/06 02:42:40;;;;;;;0.85;0.85;;;;;;;;;;5012222;28;20053;-75
2023/12/06 02:45:06;;;;;;;1.00;1.00;;;;;;;;;;5011079;28;20053;-74
2023/12/06 02:47:31;;;;;;;0.70;0.70;;;;;;;;;;5011270;28;20033;-75
2023/12/06 02:49:57;;;;;;;0.75;0.75;;;;;;;;;;5013259;28;20039;-75
2023/12/06 02:52:22;;;;;;;0.60;0.60;;;;;;;;;;5013519;28;20069;-75
2023/12/06 02:54:47;;;;;;;0.82;0.82;;;;;;;;;;5020309;28;20037;-74
2023/12/06 02:57:12;;;;;;;1.10;0.90;;;;;;;;;;5015305;28;20025;-75
2023/12/06 02:59:38;;;;;;;0.77;0.77;;;;;;;;;;5010395;28;20383;-74
2023/12/06 03:02:04;;;;;;;1.02;1.00;;;;;;;;;;5010979;28;20034;-74
2023/12/06 03:04:29;;;;;;;1.63;1.00;;;;;;;;;;5010362;28;20065;-75
2023/12/06 03:06:55;;;;;;;0.75;0.75;;;;;;;;;;5016915;28;20073;-74
2023/12/06 03:09:20;;;;;;;0.70;0.70;;;;;;;;;;5021011;28;20116;-76
2023/12/06 03:11:45;;;;;;;0.77;0.77;;;;;;;;;;5015872;28;20034;-77
2023/12/06 03:14:10;;;;;;;0.77;0.77;;;;;;;;;;5010218;28;20219;-76
2023/12/06 03:16:36;;;;;;;0.68;0.68;;;;;;;;;;5012747;28;20038;-76
2023/12/06 03:19:02;;;;;;;2.20;0.98;;;;;;;;;;5016600;28;20041;-76
2023/12/06 03:21:27;;;;;;;1.70;0.90;;;;;;;;;;5012794;28;20064;-77
2023/12/06 03:23:52;;;;;;;0.70;0.70;;;;;;;;;;5021622;28;20057;-76
2023/12/06 03:26:17;;;;;;;1.08;0.73;;;;;;;;;;5013991;28;20030;-76
2023/12/06 03:28:43;;;;;;;5.53;1.15;;;;;;;;;;5011836;28;20048;-76
2023/12/06 03:31:08;;;;;;;0.73;0.73;;;;;;;;;;5017968;28;20553;-76
2023/12/06 03:33:33;;;;;;;0.70;0.70;;;;;;;;;;5010861;28;20030;-76
2023/12/06 03:35:59;;;;;;;2.25;0.95;;;;;;;;;;5027711;28;20528;-76
2023/12/06 03:38:24;;;;;;;0.75;0.75;;;;;;;;;;5020093;28;20096;-76
2023/12/06 03:40:49;;;;;;;1.33;0.90;;;;;;;;;;5030174;28;20052;-76
2023/12/06 03:43:15;;;;;;;0.90;0.90;;;;;;;;;;5039652;28;20040;-76
2023/12/06 03:45:40;;;;;;;0.65;0.63;;;;;;;;;;5013912;28;20575;-76
2023/12/06 03:48:05;;;;;;;0.98;0.98;;;;;;;;;;5022234;28;20021;-76
2023/12/06 03:50:30;;;;;;;0.90;0.90;;;;;;;;;;5027915;28;20250;-76
2023/12/06 03:52:56;;;;;;;1.63;0.90;;;;;;;;;;5028465;28;20053;-76
2023/12/06 03:55:21;;;;;;;0.70;0.70;;;;;;;;;;5023170;28;20497;-76
2023/12/06 03:57:47;;;;;;;0.80;0.80;;;;;;;;;;5020757;28;20141;-76
2023/12/06 04:00:13;;;;;;;1.00;0.90;;;;;;;;;;5027987;28;20026;-76
2023/12/06 04:02:38;;;;;;;1.48;0.70;;;;;;;;;;5022879;28;20021;-76
2023/12/06 04:05:04;;;;;;;0.73;0.73;;;;;;;;;;5008362;28;20401;-75
2023/12/06 04:07:29;;;;;;;0.60;0.60;;;;;;;;;;5023095;28;20037;-75
2023/12/06 04:09:54;;;;;;;0.50;0.50;;;;;;;;;;5030205;28;20112;-75
2023/12/06 04:12:20;;;;;;;0.70;0.70;;;;;;;;;;5022200;28;20475;-76
2023/12/06 04:14:45;;;;;;;0.88;0.88;;;;;;;;;;5019778;28;20025;-76
2023/12/06 04:17:11;;;;;;;0.55;0.55;;;;;;;;;;5021555;28;20022;-75
2023/12/06 04:19:38;;;;;;;1.00;0.90;;;;;;;;;;5026138;28;20037;-75
2023/12/06 04:22:03;;;;;;;0.75;0.75;;;;;;;;;;5024447;28;20034;-76
2023/12/06 04:24:30;;;;;;;0.57;0.57;;;;;;;;;;5021223;28;20038;-76
2023/12/06 04:26:55;;;;;;;2.13;0.68;;;;;;;;;;5024334;28;20423;-76
2023/12/06 04:29:20;;;;;;;0.80;0.80;;;;;;;;;;5031456;28;20025;-76
2023/12/06 04:31:46;;;;;;;6.63;0.98;;;;;;;;;;5023708;28;20073;-76
2023/12/06 04:34:11;;;;;;;0.82;0.82;;;;;;;;;;5027517;28;20040;-76
2023/12/06 04:36:36;;;;;;;0.80;0.80;;;;;;;;;;5024101;28;20045;-76
2023/12/06 04:39:01;;;;;;;0.80;0.80;;;;;;;;;;5027870;28;20024;-76
2023/12/06 04:41:27;;;;;;;0.50;0.50;;;;;;;;;;5032587;28;20041;-76
2023/12/06 04:43:52;;;;;;;0.65;0.60;;;;;;;;;;5026191;28;20062;-76
2023/12/06 04:46:18;;;;;;;0.77;0.77;;;;;;;;;;5025337;28;20034;-76
2023/12/06 04:48:43;;;;;;;1.65;1.08;;;;;;;;;;5023486;28;20037;-76
2023/12/06 04:51:09;;;;;;;0.70;0.70;;;;;;;;;;5030843;28;20025;-76
2023/12/06 04:53:34;;;;;;;0.60;0.60;;;;;;;;;;5027355;28;20025;-76
2023/12/06 04:55:59;;;;;;;1.33;0.85;;;;;;;;;;5015478;28;20121;-76
2023/12/06 04:58:25;;;;;;;0.80;0.80;;;;;;;;;;5024166;28;20092;-76
2023/12/06 05:00:52;;;;;;;1.00;1.00;;;;;;;;;;5021694;28;20038;-76
2023/12/06 05:03:19;;;;;;;2.47;0.57;;;;;;;;;;5027269;28;20143;-76
2023/12/06 05:05:44;;;;;;;1.35;0.75;;;;;;;;;;5027583;28;20028;-76
2023/12/06 05:08:10;;;;;;;0.70;0.70;;;;;;;;;;5015234;28;20049;-76
2023/12/06 05:10:35;;;;;;;0.82;0.82;;;;;;;;;;5021825;28;20112;-76
2023/12/06 05:13:00;;;;;;;0.40;0.40;;;;;;;;;;5023458;28;20552;-75
2023/12/06 05:15:25;;;;;;;0.70;0.70;;;;;;;;;;5010317;28;20037;-76
2023/12/06 05:17:51;;;;;;;3.03;0.70;;;;;;;;;;5024405;28;20522;-75
2023/12/06 05:20:16;;;;;;;1.73;0.93;;;;;;;;;;5020123;28;20116;-76
2023/12/06 05:22:41;;;;;;;0.65;0.65;;;;;;;;;;5027089;28;20045;-76
2023/12/06 05:25:07;;;;;;;1.08;0.88;;;;;;;;;;5031171;28;20044;-76
2023/12/06 05:27:33;;;;;;;1.02;0.93;;;;;;;;;;5012386;28;20033;-76
2023/12/06 05:29:58;;;;;;;0.88;0.88;;;;;;;;;;5025182;28;20032;-76
2023/12/06 05:32:23;;;;;;;0.60;0.60;;;;;;;;;;5021213;28;20038;-76
2023/12/06 05:34:48;;;;;;;2.05;0.90;;;;;;;;;;5013796;28;20062;-76
2023/12/06 05:37:14;;;;;;;0.82;0.70;;;;;;;;;;5019501;28;20022;-76
2023/12/06 05:39:39;;;;;;;2.28;0.80;;;;;;;;;;5011545;28;20034;-76
2023/12/06 05:42:04;;;;;;;0.70;0.70;;;;;;;;;;5027722;28;20013;-76
2023/12/06 05:44:30;;;;;;;0.80;0.80;;;;;;;;;;5019329;28;20037;-76
2023/12/06 05:46:55;;;;;;;2.33;0.90;;;;;;;;;;5022027;28;20038;-76
2023/12/06 05:49:21;;;;;;;0.73;0.73;;;;;;;;;;5026356;28;20473;-76
2023/12/06 05:51:46;;;;;;;5.82;0.70;;;;;;;;;;5028111;28;20405;-76
2023/12/06 05:54:11;;;;;;;0.40;0.40;;;;;;;;;;5020095;28;20068;-76
2023/12/06 05:56:37;;;;;;;0.80;0.80;;;;;;;;;;5026233;28;20115;-75
2023/12/06 05:59:02;;;;;;;0.77;0.77;;;;;;;;;;5024084;28;20034;-75
2023/12/06 06:01:28;;;;;;;0.57;0.57;;;;;;;;;;5021893;28;20456;-76
2023/12/06 06:03:53;;;;;;;0.80;0.80;;;;;;;;;;5016012;28;20037;-75
2023/12/06 06:06:18;;;;;;;0.60;0.60;;;;;;;;;;5021839;28;20018;-75
2023/12/06 06:08:44;;;;;;;0.70;0.70;;;;;;;;;;5033742;28;20513;-76
2023/12/06 06:11:09;;;;;;;0.77;0.77;;;;;;;;;;5001354;28;20026;-75
2023/12/06 06:13:35;;;;;;;0.77;0.77;;;;;;;;;;5029309;28;20037;-76
2023/12/06 06:16:00;;;;;;;0.77;0.77;;;;;;;;;;5018260;28;20448;-76
2023/12/06 06:18:27;;;;;;;1.05;0.80;;;;;;;;;;5002508;28;20034;-75
2023/12/06 06:20:53;;;;;;;0.80;0.80;;;;;;;;;;5013566;28;20363;-75
2023/12/06 06:23:18;;;;;;;0.80;0.80;;;;;;;;;;5021488;28;20037;-75
2023/12/06 06:25:43;;;;;;;0.85;0.70;;;;;;;;;;5015048;28;20038;-76
2023/12/06 06:28:08;;;;;;;0.75;0.75;;;;;;;;;;5018586;28;20038;-75
2023/12/06 06:30:34;;;;;;;0.98;0.98;;;;;;;;;;5010360;28;20064;-75
2023/12/06 06:32:59;;;;;;;0.60;0.60;;;;;;;;;;5015382;28;20029;-75
2023/12/06 06:35:24;;;;;;;0.68;0.68;;;;;;;;;;5014115;28;20478;-75
2023/12/06 06:37:49;;;;;;;0.70;0.70;;;;;;;;;;5019329;28;20026;-75
2023/12/06 06:40:15;;;;;;;0.57;0.57;;;;;;;;;;5010488;28;20038;-75
2023/12/06 06:42:41;;;;;;;0.60;0.60;;;;;;;;;;5010975;28;20099;-76
2023/12/06 06:45:08;;;;;;;1.38;0.50;;;;;;;;;;5015261;28;20030;-76
2023/12/06 06:47:36;;;;;;;0.60;0.60;;;;;;;;;;5015340;28;20033;-76
2023/12/06 06:50:06;;;;;;;0.60;0.60;;;;;;;;;;5014543;28;20045;-75
2023/12/06 06:52:35;;;;;;;1.73;0.80;;;;;;;;;;5012646;28;20044;-76
2023/12/06 06:55:00;;;;;;;0.55;0.55;;;;;;;;;;5015095;28;20050;-76
2023/12/06 06:57:26;;;;;;;0.68;0.68;;;;;;;;;;5021454;28;20036;-76
2023/12/06 06:59:51;;;;;;;0.52;0.52;;;;;;;;;;5017214;28;20029;-75
2023/12/06 07:02:16;;;;;;;0.60;0.60;;;;;;;;;;5010910;28;20077;-75
2023/12/06 07:04:43;;;;;;;0.80;0.73;;;;;;;;;;5012466;28;20040;-75
2023/12/06 07:07:08;;;;;;;0.60;0.60;;;;;;;;;;5011483;28;20383;-76
2023/12/06 07:09:34;;;;;;;0.85;0.63;;;;;;;;;;5020007;28;20030;-76
2023/12/06 07:11:59;;;;;;;0.52;0.50;;;;;;;;;;5010889;28;20448;-76
2023/12/06 07:14:24;;;;;;;0.82;0.82;;;;;;;;;;5011264;28;20558;-76
2023/12/06 07:16:49;;;;;;;0.47;0.47;;;;;;;;;;5009901;28;20033;-76
2023/12/06 07:19:15;;;;;;;0.75;0.70;;;;;;;;;;5016790;28;20417;-76
2023/12/06 07:21:40;;;;;;;0.60;0.60;;;;;;;;;;5021390;28;20036;-76
2023/12/06 07:24:06;;;;;;;0.60;0.60;;;;;;;;;;5018547;28;20075;-76
2023/12/06 07:26:32;;;;;;;0.70;0.70;;;;;;;;;;5010921;28;20097;-76
2023/12/06 07:28:57;;;;;;;0.40;0.40;;;;;;;;;;5012031;28;20056;-76
2023/12/06 07:31:22;;;;;;;0.70;0.70;;;;;;;;;;5010921;28;20065;-76
2023/12/06 07:33:50;;;;;;;0.73;0.73;;;;;;;;;;5011955;28;20038;-76
2023/12/06 07:36:16;;;;;;;0.60;0.60;;;;;;;;;;5019398;28;20018;-76
2023/12/06 07:38:41;;;;;;;1.42;0.60;;;;;;;;;;5009462;28;20033;-76
2023/12/06 07:41:07;;;;;;;0.50;0.50;;;;;;;;;;5020516;28;20040;-76
2023/12/06 07:43:32;;;;;;;0.60;0.60;;;;;;;;;;5017851;28;20087;-76
2023/12/06 07:45:57;;;;;;;0.45;0.45;;;;;;;;;;5020296;28;20522;-76
2023/12/06 07:48:22;;;;;;;0.93;0.75;;;;;;;;;;5002756;28;20433;-76
2023/12/06 07:50:50;;;;;;;0.80;0.52;;;;;;;;;;5020911;28;20034;-76
2023/12/06 07:53:15;;;;;;;0.50;0.50;;;;;;;;;;5013100;28;20029;-77
2023/12/06 07:55:40;;;;;;;0.70;0.70;;;;;;;;;;5013895;28;20029;-77
2023/12/06 07:58:06;;;;;;;0.60;0.60;;;;;;;;;;5015058;28;20091;-77
2023/12/06 08:00:33;;;;;;;0.70;0.70;;;;;;;;;;5015664;28;20136;-77
2023/12/06 08:02:58;;;;;;;0.50;0.50;;;;;;;;;;5017806;28;20390;-77
2023/12/06 08:05:24;;;;;;;0.63;0.63;;;;;;;;;;5024559;28;20033;-77
2023/12/06 08:07:49;;;;;;;0.52;0.52;;;;;;;;;;5017116;28;20034;-77
2023/12/06 08:10:22;;;;;;;0.60;0.60;;;;;;;;;;5015047;28;20559;-77
2023/12/06 08:12:51;;;;;;;0.60;0.60;;;;;;;;;;5023991;28;20034;-76
2023/12/06 08:15:16;;;;;;;0.40;0.40;;;;;;;;;;5021315;28;20053;-77
2023/12/06 08:17:42;;;;;;;0.60;0.60;;;;;;;;;;5021553;28;20532;-76
2023/12/06 08:20:08;;;;;;;0.73;0.73;;;;;;;;;;5012102;28;20030;-77
2023/12/06 08:22:33;;;;;;;0.60;0.60;;;;;;;;;;5013540;28;20037;-76
2023/12/06 08:24:59;;;;;;;0.63;0.63;;;;;;;;;;5012071;28;20507;-77
2023/12/06 08:27:27;;;;;;;0.77;0.77;;;;;;;;;;5016922;28;20042;-77
2023/12/06 08:29:54;;;;;;;0.60;0.60;;;;;;;;;;5017917;28;20113;-77
2023/12/06 08:32:19;;;;;;;0.60;0.60;;;;;;;;;;5012740;28;20045;-77
2023/12/06 08:34:45;;;;;;;1.35;0.73;;;;;;;;;;5013922;28;20405;-77
2023/12/06 08:37:10;;;;;;;0.65;0.65;;;;;;;;;;5011397;28;20113;-77
2023/12/06 08:39:35;;;;;;;0.60;0.60;;;;;;;;;;5013732;28;20049;-77
2023/12/06 08:42:00;;;;;;;0.85;0.75;;;;;;;;;;5016627;28;20028;-77
2023/12/06 08:44:27;;;;;;;1.65;0.50;;;;;;;;;;5018215;28;20429;-77
2023/12/06 08:46:53;;;;;;;0.70;0.70;;;;;;;;;;5015467;28;20163;-77
2023/12/06 08:49:18;;;;;;;0.70;0.70;;;;;;;;;;5017261;28;20058;-77
2023/12/06 08:51:44;;;;;;;0.90;0.90;;;;;;;;;;5016011;28;20096;-77
2023/12/06 08:54:09;;;;;;;0.60;0.60;;;;;;;;;;5012646;28;20040;-77
2023/12/06 08:56:34;;;;;;;0.80;0.80;;;;;;;;;;5015989;28;20097;-78
2023/12/06 08:59:00;;;;;;;0.70;0.70;;;;;;;;;;5015847;28;20037;-78
2023/12/06 09:01:25;;;;;;;0.80;0.80;;;;;;;;;;5015533;28;20080;-77
2023/12/06 09:03:50;;;;;;;1.00;0.75;;;;;;;;;;5016160;28;20038;-78
2023/12/06 09:06:16;;;;;;;3.83;1.00;;;;;;;;;;5012905;28;20044;-77
2023/12/06 09:08:41;;;;;;;0.70;0.70;;;;;;;;;;5015263;28;20029;-77
2023/12/06 09:11:07;;;;;;;0.90;0.90;;;;;;;;;;5012994;28;20046;-77
2023/12/06 09:13:32;;;;;;;0.80;0.80;;;;;;;;;;5014799;28;20041;-78
2023/12/06 09:15:58;;;;;;;0.70;0.70;;;;;;;;;;5019997;28;20038;-78
2023/12/06 09:18:23;;;;;;;0.70;0.70;;;;;;;;;;5020125;28;20394;-77
2023/12/06 09:20:48;;;;;;;0.82;0.70;;;;;;;;;;5014867;28;20034;-78
2023/12/06 09:23:14;;;;;;;0.70;0.70;;;;;;;;;;5012676;28;20121;-78
2023/12/06 09:25:39;;;;;;;0.77;0.77;;;;;;;;;;5016778;28;20261;-78
2023/12/06 09:28:06;;;;;;;0.93;0.93;;;;;;;;;;5012841;28;20057;-78
2023/12/06 09:30:31;;;;;;;4.13;0.90;;;;;;;;;;5019745;28;21154;-78
2023/12/06 09:32:56;;;;;;;0.85;0.80;;;;;;;;;;4984861;28;20125;-78
2023/12/06 09:35:22;;;;;;;1.27;1.17;;;;;;;;;;5033415;28;20034;-78
2023/12/06 09:37:48;;;;;;;0.90;0.90;;;;;;;;;;4998021;28;20516;-78
2023/12/06 09:40:14;;;;;;;0.73;0.73;;;;;;;;;;4989970;28;20044;-77
2023/12/06 09:42:43;;;;;;;0.70;0.70;;;;;;;;;;5021906;28;20405;-78
2023/12/06 09:45:09;;;;;;;1.00;0.90;;;;;;;;;;5017121;28;20049;-77
2023/12/06 09:47:35;;;;;;;1.17;1.10;;;;;;;;;;5021249;28;20018;-78
2023/12/06 09:50:01;;;;;;;1.00;0.80;;;;;;;;;;5014574;28;20038;-78
2023/12/06 09:52:26;;;;;;;0.80;0.80;;;;;;;;;;5014073;28;20310;-78
2023/12/06 09:54:52;;;;;;;0.70;0.70;;;;;;;;;;5012273;28;20067;-78
2023/12/06 09:57:17;;;;;;;0.80;0.80;;;;;;;;;;5020710;28;20022;-78
2023/12/06 09:59:43;;;;;;;0.82;0.82;;;;;;;;;;5014880;28;20022;-77
2023/12/06 10:02:08;;;;;;;0.90;0.90;;;;;;;;;;5027012;28;20033;-78
2023/12/06 10:04:34;;;;;;;0.95;0.95;;;;;;;;;;5012876;28;20436;-77
2023/12/06 10:07:00;;;;;;;0.85;0.85;;;;;;;;;;5022612;28;20050;-78
2023/12/06 10:09:26;;;;;;;1.00;1.00;;;;;;;;;;5016940;28;20034;-78
2023/12/06 10:11:51;;;;;;;1.20;1.05;;;;;;;;;;5020519;28;20771;-78
2023/12/06 10:14:17;;;;;;;1.00;1.00;;;;;;;;;;5023705;28;20497;-78
2023/12/06 10:16:44;;;;;;;1.20;1.00;;;;;;;;;;5017382;28;20030;-78
2023/12/06 10:19:09;;;;;;;1.20;1.20;;;;;;;;;;5024194;28;20085;-78
2023/12/06 10:21:35;;;;;;;0.90;0.90;;;;;;;;;;5014343;28;20502;-78
2023/12/06 10:24:01;;;;;;;1.98;0.95;;;;;;;;;;5013553;28;20025;-78
2023/12/06 10:26:30;;;;;;;0.70;0.70;;;;;;;;;;5017698;28;20044;-78
2023/12/06 10:28:55;;;;;;;0.85;0.80;;;;;;;;;;5023423;28;20072;-78
2023/12/06 10:31:21;;;;;;;0.70;0.70;;;;;;;;;;5014967;28;20517;-79
2023/12/06 10:33:53;;;;;;;0.70;0.70;;;;;;;;;;5018192;28;20029;-78
2023/12/06 10:36:19;;;;;;;0.80;0.80;;;;;;;;;;5015710;28;20741;-79
2023/12/06 10:38:46;;;;;;;0.77;0.75;;;;;;;;;;5023700;28;20030;-78
2023/12/06 10:41:16;;;;;;;0.88;0.88;;;;;;;;;;5016027;28;20045;-78
2023/12/06 10:43:43;;;;;;;0.90;0.70;;;;;;;;;;5015554;28;20490;-78
2023/12/06 10:46:09;;;;;;;0.73;0.73;;;;;;;;;;5022389;28;20060;-78
2023/12/06 10:48:35;;;;;;;2.05;0.80;;;;;;;;;;5013457;28;20490;-78
2023/12/06 10:51:02;;;;;;;0.90;0.90;;;;;;;;;;5026893;28;20029;-78
2023/12/06 10:53:28;;;;;;;1.02;0.90;;;;;;;;;;5021925;28;20029;-79
2023/12/06 10:55:54;;;;;;;0.70;0.70;;;;;;;;;;5018105;28;20034;-78
2023/12/06 10:58:23;;;;;;;1.00;1.00;;;;;;;;;;5018485;28;20048;-79
2023/12/06 11:00:48;;;;;;;0.88;0.88;;;;;;;;;;5025537;28;20037;-78
2023/12/06 11:03:14;;;;;;;1.95;0.93;;;;;;;;;;5022338;28;20036;-78
2023/12/06 11:05:44;;;;;;;0.82;0.82;;;;;;;;;;5022544;28;20276;-79
2023/12/06 11:08:35;;;;;;;2.58;0.98;;;;;;;;;;5026112;28;20037;-79
2023/12/06 11:11:25;;;;;;;0.60;0.60;;;;;;;;;;5023277;28;20053;-79
2023/12/06 11:14:10;;;;;;;0.80;0.80;;;;;;;;;;5024769;28;20048;-79
2023/12/06 11:16:47;;;;;;;0.80;0.80;;;;;;;;;;5034052;28;20026;-80
2023/12/06 11:19:14;;;;;;;1.95;1.35;;;;;;;;;;5019702;28;20042;-79
2023/12/06 11:21:40;;;;;;;3.00;0.93;;;;;;;;;;5031292;28;20036;-79
2023/12/06 11:24:08;;;;;;;0.90;0.90;;;;;;;;;;5022070;28;20022;-78
2023/12/06 11:26:33;;;;;;;1.15;1.05;;;;;;;;;;5018679;28;20034;-78
2023/12/06 11:28:59;;;;;;;3.15;1.00;;;;;;;;;;5031398;28;20038;-78
2023/12/06 11:31:33;;;;;;;2.30;1.17;;;;;;;;;;5031804;28;20053;-78
2023/12/06 11:34:11;;;;;;;1.10;1.10;;;;;;;;;;5026548;28;20040;-78
2023/12/06 11:36:37;;;;;;;1.15;0.95;;;;;;;;;;5023374;28;20038;-78
2023/12/06 11:39:16;;;;;;;21.50;2.00;;;;;;;;;;5017978;28;20014;-78
2023/12/06 11:41:55;;;;;;;2.00;1.35;;;;;;;;;;5024673;28;20105;-78
2023/12/06 11:44:20;;;;;;;1.25;1.10;;;;;;;;;;5029348;28;20039;-79
2023/12/06 11:46:55;;;;;;;2.00;1.23;;;;;;;;;;5043260;28;20030;-79
2023/12/06 11:49:22;;;;;;;1.02;1.02;;;;;;;;;;5040927;28;20060;-79
2023/12/06 11:51:53;;;;;;;1.88;1.38;;;;;;;;;;5028392;28;20030;-79
2023/12/06 11:54:18;;;;;;;1.30;1.20;;;;;;;;;;5015039;28;20125;-79
2023/12/06 11:56:44;;;;;;;1.10;1.10;;;;;;;;;;5016114;28;20062;-79
2023/12/06 11:59:10;;;;;;;2.55;1.50;;;;;;;;;;5023788;28;20068;-79
2023/12/06 12:01:36;;;;;;;1.10;1.10;;;;;;;;;;5030065;28;20029;-79
2023/12/06 12:04:01;;;;;;;1.30;1.17;;;;;;;;;;5020402;28;20064;-78
2023/12/06 12:06:29;;;;;;;1.33;1.23;;;;;;;;;;5032394;28;20037;-79
2023/12/06 12:08:55;;;;;;;1.08;1.08;;;;;;;;;;5028014;28;20052;-78
2023/12/06 12:11:21;;;;;;;1.20;1.10;;;;;;;;;;5032247;28;20037;-78
2023/12/06 12:13:47;;;;;;;3.92;1.50;;;;;;;;;;5016416;28;20033;-78
2023/12/06 12:16:15;;;;;;;2.97;1.60;;;;;;;;;;5031702;28;20125;-78
2023/12/06 12:18:41;;;;;;;7.43;1.50;;;;;;;;;;5022691;28;20461;-78
2023/12/06 12:21:08;;;;;;;6.88;1.30;;;;;;;;;;5033398;28;20017;-78
2023/12/06 12:23:33;;;;;;;5.57;1.10;;;;;;;;;;5025358;28;20081;-78
2023/12/06 12:25:59;;;;;;;1.35;1.25;;;;;;;;;;5038033;28;20083;-78
2023/12/06 12:28:24;;;;;;;4.72;1.70;;;;;;;;;;5020327;28;20042;-79
2023/12/06 12:30:55;;;;;;;1.33;1.25;;;;;;;;;;5018255;28;20098;-79
2023/12/06 12:35:51;;;;;;;1.65;1.42;;;;;;;;;;5032319;28;20117;-78
2023/12/06 12:38:17;;;;;;;1.73;1.40;;;;;;;;;;5035300;28;20068;-77
2023/12/06 12:40:43;;;;;;;1.30;1.23;;;;;;;;;;5017859;28;20080;-78
2023/12/06 12:43:10;;;;;;;1.67;1.58;;;;;;;;;;5015050;28;20033;-77
2023/12/06 12:45:35;;;;;;;2.55;1.42;;;;;;;;;;5019127;28;20113;-80
2023/12/06 12:48:01;;;;;;;1.83;1.15;;;;;;;;;;5011525;28;20069;-78
2023/12/06 12:50:26;;;;;;;1.88;1.05;;;;;;;;;;5023011;28;20041;-79
2023/12/06 12:52:55;;;;;;;1.40;1.30;;;;;;;;;;5001359;28;20345;-78
2023/12/06 12:55:20;;;;;;;2.83;1.48;;;;;;;;;;5018674;28;20128;-77
2023/12/06 12:57:46;;;;;;;3.75;1.48;;;;;;;;;;5018889;28;20497;-78
2023/12/06 13:00:22;;;;;;;1.45;1.35;;;;;;;;;;5001573;28;20030;-78
2023/12/06 13:02:49;;;;;;;1.85;1.35;;;;;;;;;;5013527;28;20025;-77
2023/12/06 13:05:15;;;;;;;1.35;1.30;;;;;;;;;;5017842;28;20521;-79
2023/12/06 13:07:40;;;;;;;1.23;1.23;;;;;;;;;;5004053;28;20042;-79
2023/12/06 13:10:10;;;;;;;1.17;1.17;;;;;;;;;;5022626;28;20034;-79
2023/12/06 13:12:40;;;;;;;1.30;1.20;;;;;;;;;;5020227;28;20022;-80
2023/12/06 13:15:07;;;;;;;1.63;1.52;;;;;;;;;;5006295;28;20125;-80
2023/12/06 13:17:32;;;;;;;1.90;1.33;;;;;;;;;;4990564;28;20022;-80
2023/12/06 13:19:58;;;;;;;1.23;1.20;;;;;;;;;;5015651;28;20398;-79
2023/12/06 13:22:23;;;;;;;4.40;1.75;;;;;;;;;;5017730;28;20510;-79
2023/12/06 13:24:49;;;;;;;1.80;1.70;;;;;;;;;;5023787;28;20041;-80
2023/12/06 13:27:14;;;;;;;1.35;1.25;;;;;;;;;;5024747;28;20090;-80
2023/12/06 13:29:40;;;;;;;2.70;1.50;;;;;;;;;;5025558;28;20061;-79
2023/12/06 13:32:05;;;;;;;1.45;1.35;;;;;;;;;;5023490;28;20045;-80
2023/12/06 13:34:30;;;;;;;2.05;1.77;;;;;;;;;;5015335;28;20041;-80
2023/12/06 13:36:57;;;;;;;2.17;1.73;;;;;;;;;;5025255;28;20109;-79
2023/12/06 13:39:23;;;;;;;2.00;1.90;;;;;;;;;;5011172;28;20407;-79
2023/12/06 13:41:48;;;;;;;1.98;1.80;;;;;;;;;;5028041;28;20061;-79
2023/12/06 13:44:13;;;;;;;2.30;2.10;;;;;;;;;;5010306;28;20030;-79
2023/12/06 13:46:39;;;;;;;1.58;1.48;;;;;;;;;;5011299;28;20605;-80
2023/12/06 13:49:04;;;;;;;1.65;1.55;;;;;;;;;;5027958;28;20383;-79
2023/12/06 13:51:30;;;;;;;1.60;1.50;;;;;;;;;;5008277;28;20124;-80
2023/12/06 13:53:55;;;;;;;1.88;1.70;;;;;;;;;;5029571;28;20084;-79
2023/12/06 13:56:21;;;;;;;1.83;1.73;;;;;;;;;;5020080;28;20034;-80
2023/12/06 13:58:47;;;;;;;2.75;1.85;;;;;;;;;;5028268;28;20029;-79
2023/12/06 14:01:12;;;;;;;1.80;1.70;;;;;;;;;;5029168;28;20056;-79
2023/12/06 14:03:42;;;;;;;2.42;2.13;;;;;;;;;;5010902;28;20038;-79
2023/12/06 14:06:11;;;;;;;2.65;2.03;;;;;;;;;;5027650;28;20145;-79
2023/12/06 14:08:36;;;;;;;1.60;1.50;;;;;;;;;;5009306;28;20061;-80
2023/12/06 14:11:03;;;;;;;2.85;2.20;;;;;;;;;;5025827;28;20093;-79
2023/12/06 14:13:29;;;;;;;3.38;2.72;;;;;;;;;;5025003;28;20041;-78
2023/12/06 14:15:55;;;;;;;2.70;2.50;;;;;;;;;;5016553;28;20030;-79
2023/12/06 14:18:20;;;;;;;4.25;2.42;;;;;;;;;;5025459;28;20014;-78
2023/12/06 14:20:47;;;;;;;3.13;2.60;;;;;;;;;;5027215;28;20040;-78
2023/12/06 14:23:13;;;;;;;2.88;2.53;;;;;;;;;;5026500;28;20044;-81
2023/12/06 14:25:38;;;;;;;3.55;3.08;;;;;;;;;;5022417;28;20026;-79
2023/12/06 14:28:04;;;;;;;3.08;2.78;;;;;;;;;;5008565;28;20046;-79
2023/12/06 14:30:29;;;;;;;2.40;2.20;;;;;;;;;;5025046;28;20501;-79
2023/12/06 14:32:54;;;;;;;4.63;3.95;;;;;;;;;;5021328;28;20079;-79
2023/12/06 14:35:19;;;;;;;2.60;2.40;;;;;;;;;;5024599;28;20050;-78
2023/12/06 14:37:45;;;;;;;3.10;2.05;;;;;;;;;;5009551;28;20125;-80
2023/12/06 14:40:13;;;;;;;1.83;1.73;;;;;;;;;;5028656;28;20061;-78